Station: Ernabella/Pukatja

  Atmospheric Gas Attenuation - ITU Rec 676-11   --------------- db/100km ---------------
Date Time Temp RH % AH g/m3 Dew Point Wind Direction Speed kph Gust kph Barometer mB Rainfall Since 9am 24GHz 47GHz 76GHz 122GHz 134GHz 241GHz
24 19:20 31.8 47 15.7 19.1 30 35 997.5 2 33.5 30.9 56.2 148.8 159.2 553.3
24 19:10 31.4 49 16.03 19.7 32 37 997.5 2 34.2 31.6 57.8 153.0 164.3 571.0
24 19:00 32.2 45 15.36 18.8 32 52 997.5 2 32.7 30.2 54.7 144.5 154.1 535.6
24 18:50 32.6 44 15.34 18.8 37 43 997.4 2 32.7 30.0 54.3 143.6 153.1 532.0
24 18:40 32.8 43 15.15 18.6 37 44 997.5 2 32.3 29.7 53.4 141.3 150.3 522.5
24 18:30 32.9 42 14.88 18.3 26 44 997.5 2 31.7 29.2 52.4 138.4 146.8 510.2
24 18:20 31.7 47 15.62 19 22 28 997.8 2 33.3 30.8 56.0 148.2 158.4 550.6
24 18:10 32.4 44 15.18 18.9 26 32 997.6 2 32.4 29.9 53.8 142.4 151.5 526.4
24 18:00 32.7 42 14.72 18.1 28 43 997.4 2 31.4 29.1 51.9 137.2 145.2 504.6
24 17:50 33.7 40 14.78 18.6 32 39 997.5 2 31.4 28.8 51.5 136.1 144.1 500.9
24 17:40 33.6 39 14.34 18.1 28 33 997.6 2 30.5 28.2 49.9 132.0 139.0 483.0
24 17:30 33.6 39 14.34 18.1 32 48 997.6 2 30.5 28.2 49.9 132.0 139.0 483.0
24 17:20 33.7 39 14.41 18.2 28 33 997.7 2 30.7 28.3 50.1 132.5 139.7 485.4
24 17:10 33.8 38 14.12 17.9 24 30 997.7 2 30.1 27.8 49.0 129.5 136.1 472.7
24 17:00 32.5 41 14.22 17.9 32 50 997.8 2 30.4 28.4 50.2 132.6 139.5 484.7
24 16:50 33.1 40 14.32 17.7 32 39 998.1 2 30.5 28.4 50.2 132.6 139.7 485.4
24 16:40 34.2 36 13.66 17.4 28 30 998 2 29.1 27.1 47.1 124.5 130.0 451.6
24 16:30 33.6 37 13.6 17.3 30 48 998.2 2 29.0 27.2 47.3 124.9 130.3 452.6
24 16:20 33.7 37 13.67 17 28 39 998.4 2 29.1 27.2 47.5 125.4 131.0 455.0
24 16:10 33 39 13.89 17.2 35 43 998.5 2 29.6 27.8 48.7 128.7 134.8 468.1
24 16:00 33.4 37 13.46 17.1 37 56 998.6 2 28.7 27.0 46.9 123.9 129.0 448.1
24 15:50 33.4 37 13.46 17.1 33 44 999 2 28.7 27.0 46.9 123.9 129.1 448.3
24 15:40 33.3 39 14.11 17.5 32 35 999.1 2 30.1 28.0 49.3 130.4 136.9 475.8
24 15:30 33.1 39 13.96 17.3 33 54 999.2 2 29.8 27.9 48.9 129.3 135.5 470.7
24 15:20 32.9 39 13.82 17.5 33 43 999.6 2 29.5 27.7 48.6 128.3 134.2 466.2
24 15:10 32.3 41 14.07 17.4 35 43 999.7 2 30.0 28.3 49.8 131.7 138.3 480.3
24 15:00 31.6 43 14.21 17.5 33 50 999.8 2 30.4 28.7 50.8 134.2 141.2 490.5
24 14:50 31.2 46 14.88 18.2 28 35 1000.2 2 31.8 29.9 53.6 141.8 150.3 522.3
24 14:40 31.5 46 15.12 18.5 24 32 1000.4 2 32.3 30.2 54.4 143.7 152.8 530.9
24 14:30 31.2 46 14.88 18.2 33 46 1000.5 2 31.8 29.9 53.6 141.8 150.4 522.4
24 14:20 30.6 49 15.35 18.7 30 41 1000.9 2 32.8 30.9 55.9 147.8 157.6 547.5
24 14:10 31.4 48 15.7 19.1 32 37 1001.1 2 33.5 31.2 56.7 150.0 160.5 557.6
24 14:00 30.1 53 16.16 19.5 28 46 1001 2 34.6 32.4 59.5 157.4 169.2 588.0
24 13:50 29.3 56 16.35 19.6 26 32 1001.3 2 35.0 33.0 60.9 161.1 173.6 603.1
24 13:40 30 55 16.68 20 30 39 1001.5 2 35.7 33.3 61.7 163.3 176.4 613.2
24 13:30 28.7 59 16.67 19.9 30 44 1001.5 2 35.7 33.8 62.7 165.9 179.3 623.0
24 13:20 28.4 59 16.4 19.6 33 37 1001.9 1.8 35.2 33.4 61.9 163.6 176.4 612.7
24 13:10 27.8 61 16.41 19.6 32 41 1002 1.8 35.3 33.7 62.4 165.0 177.9 618.0
24 13:00 27.7 62 16.59 19.8 24 43 1002.1 1.8 35.7 34.1 63.2 167.3 180.7 627.5
24 12:50 27.2 64 16.66 20 28 33 1002.3 1.8 35.9 34.4 64.0 169.2 182.8 635.1
24 12:40 26.7 68 17.21 20.3 22 30 1002.6 1.8 37.1 35.6 66.8 176.7 191.9 666.6
24 12:30 25.8 71 17.09 20.1 28 37 1002.6 1.8 36.9 35.7 67.0 177.3 192.5 668.4
24 12:20 25.1 74 17.13 20.1 28 35 1002.8 1.8 37.0 36.1 67.8 179.5 194.9 676.7
24 12:10 24.7 78 17.65 20.6 15 20 1002.9 1.8 38.2 37.2 70.6 186.7 203.6 707.1
24 12:00 24 81 17.62 20.5 19 32 1003.1 1.8 38.2 37.5 71.1 188.1 205.1 712.2
24 11:50 23.6 86 18.29 21.1 19 26 1003.2 1.8 39.7 38.9 74.6 197.4 216.4 751.6
24 11:40 23 90 18.5 21.3 19 24 1003.7 1.8 40.2 39.6 76.2 201.7 221.5 769.2
24 11:30 22.4 90 17.87 20.7 20 33 1003.9 1.8 38.9 38.7 73.8 195.4 213.5 741.2
24 11:20 22.1 93 18.15 20.9 26 32 1003.9 1.8 39.5 39.4 75.5 199.7 218.8 759.4
24 11:10 21.9 98 18.91 21.6 20 28 1004 1.8 41.2 41.0 79.4 210.1 231.5 803.5
24 11:00 21.9 98 18.91 21.6 17 28 1004 1.6 41.2 41.0 79.4 210.1 231.5 803.5
24 10:50 22.3 94 18.56 21.3 19 20 1004.4 1.2 40.4 40.1 77.3 204.5 224.7 780.1
24 10:40 22.8 91 18.49 21.3 13 19 1004.5 0.8 40.2 39.7 76.4 202.3 222.1 771.1
24 10:30 22.6 96 19.28 21.9 17 26 1004.6 0.8 41.9 41.4 80.5 213.1 235.3 816.9
24 10:20 22.3 98 19.35 22 22 26 1004.7 0.8 42.1 41.7 81.2 214.9 237.4 824.2
24 10:10 22.2 97 19.04 21.7 11 15 1004.9 0.6 41.4 41.1 79.8 211.1 232.7 808.0
24 10:00 22.2 91 17.86 20.7 15 20 1004.8 0.4 38.9 38.8 74.0 195.9 214.1 743.1
24 09:50 22.4 85 16.88 19.8 19 20 1004.7 0.4 36.7 36.9 69.3 183.1 198.5 688.9
24 09:40 23.3 77 16.1 19 15 19 1004.5 0 35.0 35.1 64.9 171.6 184.6 640.6
24 09:30 23.1 80 16.54 19.5 11 22 1004.5 0 36.0 36.0 67.1 177.3 191.6 664.9
24 09:20 22.9 82 16.76 19.7 15 17 1004.6 0 36.4 36.4 68.2 180.5 195.4 678.1
24 09:10 22.7 80 16.16 19.1 20 24 1004.5 0 35.2 35.4 65.7 173.7 186.9 648.8
24 09:00 22.5 82 16.38 19.3 17 26 1004.3 0 35.7 35.9 66.8 176.7 190.7 661.8
24 08:50 22.3 85 16.78 19.7 17 20 1004.5 0 36.5 36.7 68.9 182.1 197.2 684.5
24 08:40 22.3 85 16.78 19.7 24 28 1004.4 0 36.5 36.7 68.9 182.1 197.2 684.4
24 08:30 23.2 79 16.42 19.4 22 43 1004 0 35.7 35.7 66.4 175.6 189.5 657.6
24 08:20 23.5 76 16.07 19 17 19 1003.8 0 34.9 34.9 64.6 170.7 183.6 637.1
24 08:10 23.3 76 15.89 18.8 20 24 1003.7 0 34.6 34.7 63.9 169.0 181.4 629.6
24 08:00 23.6 74 15.74 18.7 24 35 1003.5 0 34.2 34.3 63.0 166.5 178.5 619.6
24 07:50 23.5 73 15.44 18.4 26 30 1003.6 0 33.6 33.8 61.8 163.3 174.5 605.4
24 07:40 23.4 73 15.35 18.3 26 30 1003.3 0 33.4 33.7 61.4 162.4 173.4 601.6
24 07:30 23.3 75 15.68 18.6 13 19 1002.9 0 34.1 34.3 63.0 166.4 178.3 618.7
24 07:20 23.3 76 15.89 18.8 17 17 1002.8 0 34.6 34.6 63.9 168.9 181.3 629.2
24 07:10 23.3 77 16.1 19 15 17 1002.8 0 35.0 35.0 64.8 171.4 184.4 639.9
24 07:00 24.1 73 15.97 19 13 22 1002.1 0 34.7 34.4 63.5 168.0 180.5 626.4
24 06:50 24.7 67 15.16 18.2 17 19 1001.8 0 32.9 32.8 59.5 157.3 167.6 581.7
24 06:40 24.8 67 15.25 18.3 19 22 1002 0 33.1 32.9 59.8 158.2 168.7 585.4
24 06:30 24.9 66 15.11 18.1 20 28 1002.1 0 32.8 32.6 59.2 156.4 166.5 577.9
24 06:20 25.1 65 15.05 18.1 13 17 1002.4 0 32.6 32.4 58.8 155.4 165.3 573.6
24 05:10 25.3 62 14.51 17.7 20 26 1002.5 0 31.5 31.5 56.4 149.0 157.5 546.5
24 06:10 25.3 62 14.51 17.7 20 26 1002.5 0 31.5 31.5 56.4 149.0 157.5 546.5
24 05:00 25.5 61 14.44 17.4 22 30 1002.3 0 31.3 31.3 55.9 147.8 156.1 541.7
24 06:00 25.5 61 14.44 17.4 22 30 1002.3 0 31.3 31.3 55.9 147.8 156.1 541.7
24 05:50 25.5 61 14.44 17.4 24 28 1002 0 31.3 31.3 55.9 147.8 156.1 541.6
24 05:40 25.6 60 14.28 17.3 24 32 1001.8 0 31.0 31.0 55.2 145.8 153.7 533.3
24 05:30 25.9 58 14.04 17 19 28 1001.7 0 30.4 30.4 54.0 142.7 149.9 520.1
24 05:20 26 58 14.12 17.1 17 20 1001.7 0 30.6 30.5 54.3 143.3 150.8 523.1
24 04:50 27.5 48 12.7 15.5 19 28 1001.5 0 27.5 27.8 47.7 125.9 129.8 450.2
24 04:40 27.5 48 12.7 15.8 9 9 1001.4 0 27.5 27.8 47.7 125.9 129.8 450.1
24 04:30 28.1 46 12.58 15.7 13 24 1001.3 0 27.2 27.4 46.9 123.8 127.3 441.5
24 04:20 26.8 57 14.51 17.8 9 11 1001.6 0 31.4 30.9 55.3 146.0 154.3 535.7
24 04:10 26.9 54 13.82 16.8 9 13 1001.6 0 29.9 29.7 52.4 138.5 145.1 503.5
24 04:00 26.6 59 14.85 17.9 7 9 1001.5 0 32.1 31.5 56.8 150.1 159.3 552.9
24 03:50 27 52 13.38 16.3 9 11 1001.4 0 29.0 29.0 50.6 133.7 139.2 483.0
24 03:40 26.9 53 13.57 16.5 11 13 1001.4 0 29.4 29.3 51.4 135.9 141.9 492.1
24 03:30 27.2 50 13.01 15.9 11 15 1001.3 0 28.2 28.4 49.1 129.5 134.2 465.4
24 03:20 27.4 48 12.63 15.7 11 13 1001.3 0 27.4 27.7 47.5 125.4 129.1 447.6
24 03:10 27.6 47 12.5 15.3 13 15 1001.5 0 27.1 27.5 46.9 123.8 127.2 440.9
24 03:00 28 44 11.97 14.6 17 22 1001.5 0 26.0 26.5 44.7 117.9 120.1 416.2
24 02:50 28.5 41 11.46 14.3 19 20 1002.4 0 24.9 25.7 42.6 112.3 113.3 392.6

Last Refresh: 24-Jan-2021 19:27:04

Most of the information presented on this site is sourced from the Bureau of Meteorology.  Copyright in all material sourced from the Bureau of Meteorology resides with the Commonwealth of Australia.